Chatuge Observed Data For Previous 48 Hours

Caption
Day and Hour Reservoir Elevation (behind dam)* Tailwater Elevation (below dam)* Average Hourly Discharge*
11/11/2018 2 AM EST 1,918.83 1,803.07 0
11/11/2018 3 AM EST 1,918.83 1,802.79 0
11/11/2018 4 AM EST 1,918.83 1,803.51 23
11/11/2018 5 AM EST 1,918.83 1,805.45 1,099
11/11/2018 6 AM EST 1,918.83 1,805.56 1,100
11/11/2018 7 AM EST 1,918.82 1,805.57 1,100
11/11/2018 8 AM EST 1,918.81 1,805.57 1,107
11/11/2018 9 AM EST 1,918.80 1,805.54 1,106
11/11/2018 10 AM EST 1,918.79 1,805.58 1,106
11/11/2018 11 AM EST 1,918.78 1,805.64 1,157
11/11/2018 12 PM EST 1,918.76 1,805.54 1,153
11/11/2018 1 PM EST 1,918.76 1,803.44 32
11/11/2018 2 PM EST 1,918.76 1,803.07 0
11/11/2018 3 PM EST 1,918.76 1,802.78 0
11/11/2018 4 PM EST 1,918.76 1,802.50 0
11/11/2018 5 PM EST 1,918.76 1,802.23 0
11/11/2018 6 PM EST 1,918.76 1,803.45 30
11/11/2018 7 PM EST 1,918.76 1,805.42 1,123
11/11/2018 8 PM EST 1,918.76 1,805.57 1,122
11/11/2018 9 PM EST 1,918.76 1,805.57 1,121
11/11/2018 10 PM EST 1,918.75 1,805.63 1,125
11/11/2018 11 PM EST 1,918.74 1,803.44 36
11/12/2018 12 AM EST 1,918.74 1,803.06 0
11/12/2018 1 AM EST 1,918.74 1,802.78 0
11/12/2018 2 AM EST 1,918.74 1,802.49 0
11/12/2018 3 AM EST 1,918.75 1,802.22 0
11/12/2018 4 AM EST 1,918.75 1,802.17 0
11/12/2018 5 AM EST 1,918.75 1,803.39 21
11/12/2018 6 AM EST 1,918.75 1,805.47 1,108
11/12/2018 7 AM EST 1,918.75 1,805.55 1,158
11/12/2018 8 AM EST 1,918.74 1,805.60 1,135
11/12/2018 9 AM EST 1,918.74 1,805.60 1,131
11/12/2018 10 AM EST 1,918.73 1,805.50 1,125
11/12/2018 11 AM EST 1,918.73 1,805.57 1,131
11/12/2018 12 PM EST 1,918.73 1,805.64 1,130
11/12/2018 1 PM EST 1,918.74 1,805.65 1,137
11/12/2018 2 PM EST 1,918.76 1,805.64 1,141
11/12/2018 3 PM EST 1,918.79 1,803.52 32
11/12/2018 4 PM EST 1,918.84 1,803.25 0
11/12/2018 5 PM EST 1,918.91 1,803.15 0
11/12/2018 6 PM EST 1,918.97 1,802.97 0
11/12/2018 7 PM EST 1,919.03 1,802.75 0
11/12/2018 8 PM EST 1,919.08 1,802.51 0
11/12/2018 9 PM EST 1,919.13 1,802.27 0
11/12/2018 10 PM EST 1,919.17 1,802.17 0
11/12/2018 11 PM EST 1,919.21 1,802.17 0
11/13/2018 12 AM EST 1,919.24 1,803.77 151
11/13/2018 1 AM EST 1,919.27 1,804.20 760
11/13/2018 2 AM EST 1,919.29 1,803.27 0
11/13/2018 3 AM EST 1,919.31 1,802.99 0
11/13/2018 4 AM EST 1,919.34 1,802.73 0
11/13/2018 5 AM EST 1,919.36 1,802.48 0
11/13/2018 6 AM EST 1,919.39 1,802.25 0
11/13/2018 7 AM EST 1,919.41 1,802.17 0
11/13/2018 8 AM EST 1,919.44 1,802.17 0
11/13/2018 9 AM EST 1,919.46 1,802.17 0
11/13/2018 10 AM EST 1,919.48 1,802.17 0
11/13/2018 11 AM EST 1,919.50 1,803.45 38

Elevations are in feet above sea level. Discharges are in cubic feet per second and are reported at the end of the hour.